Home > Products > Valid Products > MTR

000
SAUS45 KMSO 242254
MTRP69
METAR KP69 242252Z AUTO 00000KT 11/11 A3007 RMK AO1 SLP186 P0001
T01110106





000
SAUS45 KMSO 242154
MTRP69
METAR KP69 242152Z AUTO 00000KT 12/11 A3007 RMK AO1 SLP183 T01170106





000
SAUS45 KMSO 242054
MTRP69
METAR KP69 242052Z AUTO 00000KT 12/11 A3009 RMK AO1 SLP188 T01170106
58021





000
SAUS45 KMSO 241954
MTRP69
METAR KP69 241952Z AUTO 00000KT 12/10 A3011 RMK AO1 SLP194 T01220100





000
SAUS45 KMSO 241954
MTRP69
METAR KP69 241952Z AUTO 00000KT 12/10 A3011 RMK AO1 SLP194 T01220100





000
SAUS45 KMSO 241854
MTRP69
METAR KP69 241852Z AUTO 00000KT 11/09 A3014 RMK AO1 SLP207 T01110094





000
SAUS45 KMSO 241754
MTRP69
METAR KP69 241752Z AUTO 00000KT 10/09 A3015 RMK AO1 SLP212 P0001
60004 T01000094 10100 20094 50005





000
SAUS45 KMSO 241654
MTRP69
METAR KP69 241652Z AUTO 00000KT 10/09 A3017 RMK AO1 SLP217 T01000089





000
SAUS45 KMSO 241553
MTRP69
METAR KP69 241552Z AUTO 34003KT 10/09 A3014 RMK AO1 SLP210 P0001
T01000089





000
SAUS45 KMSO 241453
MTRP69
METAR KP69 241452Z AUTO 00000KT 09/09 A3014 RMK AO1 SLP207 P0001
60002 T00940089 53012





000
SAUS45 KMSO 241354
MTRP69
METAR KP69 241352Z AUTO 00000KT 09/09 A3012 RMK AO1 SLP202 P0001
T00940089





000
SAUS45 KMSO 241254
MTRP69
METAR KP69 241252Z AUTO 00000KT 09/09 A3011 RMK AO1 SLP197 T00940089





000
SAUS45 KMSO 241154
MTRP69
METAR KP69 241152Z AUTO 00000KT 09/09 A3010 RMK AO1 SLP194 P0003
60026 70086 T00940089 10106 20094 51007





000
SAUS45 KMSO 241053
MTRP69
METAR KP69 241052Z AUTO 00000KT 10/09 A3010 RMK AO1 SLP192 P0002
T01000094





000
SAUS45 KMSO 241053
MTRP69
METAR KP69 241052Z AUTO 00000KT 10/09 A3010 RMK AO1 SLP192 P0002
T01000094





000
SAUS45 KMSO 240953
MTRP69
METAR KP69 240952Z AUTO 00000KT 10/09 A3009 RMK AO1 SLP191 P0006
T01000094





000
SAUS45 KMSO 240853
MTRP69
METAR KP69 240852Z AUTO 00000KT 11/10 A3008 RMK AO1 SLP185 P0007
60015 T01060100 53012





000
SAUS45 KMSO 240754
MTRP69
METAR KP69 240752Z AUTO 00000KT 11/10 A3007 RMK AO1 SLP181 P0005
T01060100 401170094





000
SAUS45 KMSO 240654
MTRP69
METAR KP69 240652Z AUTO 00000KT 11/10 A3005 RMK AO1 SLP174 P0003
T01060100





000
SAUS45 KMSO 240554
MTRP69
METAR KP69 240552Z AUTO 00000KT 11/10 A3004 RMK AO1 SLP174 P0003
60049 T01060100 10117 20106 52011





000
SAUS45 KMSO 240454
MTRP69
METAR KP69 240452Z AUTO 00000KT 11/10 A3003 RMK AO1 SLP167 P0003
T01110100





000
SAUS45 KMSO 240454
MTRP69
METAR KP69 240452Z AUTO 00000KT 11/10 A3003 RMK AO1 SLP167 P0003
T01110100





000
SAUS45 KMSO 240354
MTRP69
METAR KP69 240352Z AUTO 00000KT 11/10 A3002 RMK AO1 SLP168 P0007
T01060100





000
SAUS45 KMSO 240354
MTRP69
METAR KP69 240352Z AUTO 00000KT 11/10 A3002 RMK AO1 SLP168 P0007
T01060100





000
SAUS45 KMSO 240254
MTRP69
METAR KP69 240252Z AUTO 00000KT 11/11 A3001 RMK AO1 SLP163 P0004
60036 T01110106 51028





000
SAUS45 KMSO 240254
MTRP69
METAR KP69 240252Z AUTO 00000KT 11/11 A3001 RMK AO1 SLP163 P0004
60036 T01110106 51028





000
SAUS45 KMSO 240154
MTRP69
METAR KP69 240152Z AUTO 00000KT 11/11 A2999 RMK AO1 SLP158 P0024
T01110106





000
SAUS45 KMSO 240154
MTRP69
METAR KP69 240152Z AUTO 00000KT 11/11 A2999 RMK AO1 SLP158 P0024
T01110106





000
SAUS45 KMSO 240054
MTRP69
METAR KP69 240052Z AUTO 00000KT 12/11 A2998 RMK AO1 PRESRR SLP153
P0008 T01170111





000
SAUS45 KMSO 232354
MTRP69
METAR KP69 232352Z AUTO VRB05KT 12/11 A2992 RMK AO1 SLP133 P0002
60006 T01170106 10117 20106 51017





000
SAUS45 KMSO 232255
MTRP69
METAR KP69 232252Z AUTO 00000KT 12/11 A2992 RMK AO1 SLP131 P0004
T01170106





000
SAUS45 KMSO 232154
MTRP69
METAR KP69 232152Z AUTO 00000KT 12/11 A2992 RMK AO1 PRESRR SLP130
T01170106





000
SAUS45 KMSO 232154
MTRP69
METAR KP69 232152Z AUTO 00000KT 12/11 A2992 RMK AO1 PRESRR SLP130
T01170106





000
SAUS45 KMSO 232054
MTRP69
METAR KP69 232052Z AUTO 35003KT 12/11 A2987 RMK AO1 SLP113 T01170106
58013





000
SAUS45 KMSO 231954
MTRP69
METAR KP69 231952Z AUTO 36003KT 11/10 A2989 RMK AO1 SLP123 T01110100





000
SAUS45 KMSO 231954
MTRP69
METAR KP69 231952Z AUTO 36003KT 11/10 A2989 RMK AO1 SLP123 T01110100





000
SAUS45 KMSO 231853
MTRP69
METAR KP69 231852Z AUTO 00000KT 11/10 A2990 RMK AO1 SLP126 T01110100





000
SAUS45 KMSO 231853
MTRP69
METAR KP69 231852Z AUTO 00000KT 11/10 A2990 RMK AO1 SLP126 T01110100





000
SAUS45 KMSO 231754
MTRP69
METAR KP69 231752Z AUTO 00000KT 11/09 A2991 RMK AO1 SLP129 60005
T01060094 10106 20094 51006





000
SAUS45 KMSO 231754
MTRP69
METAR KP69 231752Z AUTO 00000KT 11/09 A2991 RMK AO1 SLP129 60005
T01060094 10106 20094 51006





000
SAUS45 KMSO 231654
MTRP69
METAR KP69 231652Z AUTO 00000KT 11/09 A2991 RMK AO1 SLP128 T01060094





000
SAUS45 KMSO 231654
MTRP69
METAR KP69 231652Z AUTO 00000KT 11/09 A2991 RMK AO1 SLP128 T01060094





000
SAUS45 KMSO 231554
MTRP69
METAR KP69 231552Z AUTO 34003KT 10/09 A2991 RMK AO1 SLP130 T01000089





000
SAUS45 KMSO 231454
MTRP69
METAR KP69 231452Z AUTO 34004KT 09/09 A2989 RMK AO1 SLP123 60005
T00940089 50001





000
SAUS45 KMSO 231454
MTRP69
METAR KP69 231452Z AUTO 34004KT 09/09 A2989 RMK AO1 SLP123 60005
T00940089 50001





000
SAUS45 KMSO 231353
MTRP69
METAR KP69 231352Z AUTO 00000KT 09/09 A2990 RMK AO1 SLP126 P0003
T00940089





000
SAUS45 KMSO 231253
MTRP69
METAR KP69 231252Z AUTO 00000KT 09/09 A2989 RMK AO1 SLP122 P0002
T00940089





000
SAUS45 KMSO 231153
MTRP69
METAR KP69 231152Z AUTO 34003KT 09/09 A2988 RMK AO1 SLP119 P0001
60002 70002 T00940089 10106 20094 58010





000
SAUS45 KMSO 231053
MTRP69
METAR KP69 231052Z AUTO 00000KT 10/09 A2991 RMK AO1 SLP124 T01000089





000
SAUS45 KMSO 230953
MTRP69
METAR KP69 230952Z AUTO 00000KT 10/09 A2991 RMK AO1 SLP123 P0001
T01000089





000
SAUS45 KMSO 230953
MTRP69
METAR KP69 230952Z AUTO 00000KT 10/09 A2991 RMK AO1 SLP123 P0001
T01000089





000
SAUS45 KMSO 230853
MTRP69
METAR KP69 230852Z AUTO 00000KT 10/09 A2992 RMK AO1 SLP127 T01000089
53007





000
SAUS45 KMSO 230754
MTRP69
METAR KP69 230752Z AUTO 32003KT 10/09 A2991 RMK AO1 SLP127 T01000089
401720061





000
SAUS45 KMSO 230754
MTRP69
METAR KP69 230752Z AUTO 32003KT 10/09 A2991 RMK AO1 SLP127 T01000089
401720061





000
SAUS45 KMSO 230654
MTRP69
METAR KP69 230652Z AUTO 35004KT 10/09 A2989 RMK AO1 SLP122 T01000089





000
SAUS45 KMSO 230553
MTRP69
METAR KP69 230552Z AUTO 32003KT 10/09 A2989 RMK AO1 SLP124 T01000089
10128 20100 55002





000
SAUS45 KMSO 230553
MTRP69
METAR KP69 230552Z AUTO 32003KT 10/09 A2989 RMK AO1 SLP124 T01000089
10128 20100 55002





000
SAUS45 KMSO 230454
MTRP69
METAR KP69 230452Z AUTO 34004KT 10/09 A2989 RMK AO1 SLP124 T01000089





000
SAUS45 KMSO 230454
MTRP69
METAR KP69 230452Z AUTO 34004KT 10/09 A2989 RMK AO1 SLP124 T01000089





000
SAUS45 KMSO 230353
MTRP69
METAR KP69 230352Z AUTO 34003KT 10/09 A2990 RMK AO1 SLP129 T01000089





000
SAUS45 KMSO 230353
MTRP69
METAR KP69 230352Z AUTO 34003KT 10/09 A2990 RMK AO1 SLP129 T01000089





000
SAUS45 KMSO 230253
MTRP69
METAR KP69 230252Z AUTO 33005KT 11/09 A2990 RMK AO1 SLP129 T01060094
58002





000
SAUS45 KMSO 230154
MTRP69
METAR KP69 230152Z AUTO 00000KT 11/09 A2991 RMK AO1 SLP133 T01060094





000
SAUS45 KMSO 230154
MTRP69
METAR KP69 230152Z AUTO 00000KT 11/09 A2991 RMK AO1 SLP133 T01060094





000
SAUS45 KMSO 230053
MTRP69
METAR KP69 230052Z AUTO 00000KT 12/11 A2990 RMK AO1 SLP129 T01220106





000
SAUS45 KMSO 230053
MTRP69
METAR KP69 230052Z AUTO 00000KT 12/11 A2990 RMK AO1 SLP129 T01220106





000
SAUS45 KMSO 222354
MTRP69
METAR KP69 222352Z AUTO 35003KT 13/11 A2991 RMK AO1 SLP130 T01280106
10172 20111 56011





000
SAUS45 KMSO 222354
MTRP69
METAR KP69 222352Z AUTO 35003KT 13/11 A2991 RMK AO1 SLP130 T01280106
10172 20111 56011





000
SAUS45 KMSO 222254
MTRP69
METAR KP69 222252Z AUTO 34003KT 14/11 A2992 RMK AO1 SLP130 T01390111





000
SAUS45 KMSO 222254
MTRP69
METAR KP69 222252Z AUTO 34003KT 14/11 A2992 RMK AO1 SLP130 T01390111





000
SAUS45 KMSO 222154
MTRP69
METAR KP69 222152Z AUTO 35003KT 17/10 A2992 RMK AO1 SLP127 T01720100





000
SAUS45 KMSO 222053
MTRP69
METAR KP69 222052Z AUTO 36003KT 15/09 A2994 RMK AO1 SLP137 T01500094
58036





000
SAUS45 KMSO 221954
MTRP69
METAR KP69 221952Z AUTO 00000KT 14/08 A2998 RMK AO1 SLP151 T01390078





000
SAUS45 KMSO 221853
MTRP69
METAR KP69 221852Z AUTO VRB03KT 12/07 A3002 RMK AO1 SLP169 T01170067





000
SAUS45 KMSO 221753
MTRP69
METAR KP69 221752Z AUTO 36003KT 11/07 A3005 RMK AO1 SLP179 T01110067
10111 20061 58010





000
SAUS45 KMSO 221753
MTRP69
METAR KP69 221752Z AUTO 36003KT 11/07 A3005 RMK AO1 SLP179 T01110067
10111 20061 58010





000
SAUS45 KMSO 221653
MTRP69
METAR KP69 221652Z AUTO 36003KT 09/06 A3007 RMK AO1 SLP187 T00890061





000
SAUS45 KMSO 221653
MTRP69
METAR KP69 221652Z AUTO 36003KT 09/06 A3007 RMK AO1 SLP187 T00890061





000
SAUS45 KMSO 221553
MTRP69
METAR KP69 221552Z AUTO 00000KT 07/06 A3008 RMK AO1 SLP192 T00720056





000
SAUS45 KMSO 221553
MTRP69
METAR KP69 221552Z AUTO 00000KT 07/06 A3008 RMK AO1 SLP192 T00720056





000
SAUS45 KMSO 221455
MTRP69
METAR KP69 221452Z AUTO 00000KT 07/05 A3008 RMK AO1 SLP194 T00670050
56002





000
SAUS45 KMSO 221353
MTRP69
METAR KP69 221352Z AUTO VRB03KT 07/05 A3009 RMK AO1 SLP194 T00670050





000
SAUS45 KMSO 221254
MTRP69
METAR KP69 221252Z AUTO 00000KT 07/05 A3008 RMK AO1 SLP192 T00670050





000
SAUS45 KMSO 221154
MTRP69
METAR KP69 221152Z AUTO 00000KT 07/06 A3009 RMK AO1 SLP195 70039
T00670056 10083 20067 56002





000
SAUS45 KMSO 221054
MTRP69
METAR KP69 221052Z AUTO 21003KT 08/06 A3009 RMK AO1 SLP195 T00780056





000
SAUS45 KMSO 220954
MTRP69
METAR KP69 220952Z AUTO 00000KT 08/06 A3009 RMK AO1 SLP193 T00780061





000
SAUS45 KMSO 220954
MTRP69
METAR KP69 220952Z AUTO 00000KT 08/06 A3009 RMK AO1 SLP193 T00780061





000
SAUS45 KMSO 220853
MTRP69
METAR KP69 220852Z AUTO 00000KT 08/06 A3010 RMK AO1 SLP195 T00780061
51002





000
SAUS45 KMSO 220754
MTRP69
METAR KP69 220752Z AUTO VRB03KT 08/07 A3010 RMK AO1 SLP194 T00830067
401330083





000
SAUS45 KMSO 220653
MTRP69
METAR KP69 220652Z AUTO 24004KT 08/07 A3009 RMK AO1 SLP193 T00830067





000
SAUS45 KMSO 220553
MTRP69
METAR KP69 220552Z AUTO 00000KT 08/07 A3009 RMK AO1 SLP192 60001
T00830072 10100 20083 53004





000
SAUS45 KMSO 220553
MTRP69
METAR KP69 220552Z AUTO 00000KT 08/07 A3009 RMK AO1 SLP192 60001
T00830072 10100 20083 53004





000
SAUS45 KMSO 220454
MTRP69
METAR KP69 220452Z AUTO 00000KT 09/08 A3008 RMK AO1 SLP189 T00890078





000
SAUS45 KMSO 220454
MTRP69
METAR KP69 220452Z AUTO 00000KT 09/08 A3008 RMK AO1 SLP189 T00890078





000
SAUS45 KMSO 220354
MTRP69
METAR KP69 220352Z AUTO 00000KT 09/08 A3008 RMK AO1 SLP188 T00890083





000
SAUS45 KMSO 220254
MTRP69
METAR KP69 220252Z AUTO 00000KT 09/08 A3007 RMK AO1 SLP188 60001
T00890083 53006





000
SAUS45 KMSO 220254
MTRP69
METAR KP69 220252Z AUTO 00000KT 09/08 A3007 RMK AO1 SLP188 60001
T00890083 53006





000
SAUS45 KMSO 220154
MTRP69
METAR KP69 220152Z AUTO 00000KT 09/08 A3007 RMK AO1 SLP186 T00940083





000
SAUS45 KMSO 220154
MTRP69
METAR KP69 220152Z AUTO 00000KT 09/08 A3007 RMK AO1 SLP186 T00940083





000
SAUS45 KMSO 220054
MTRP69
METAR KP69 220052Z AUTO 00000KT 09/09 A3005 RMK AO1 SLP180 P0001
T00940089





000
SAUS45 KMSO 212354
MTRP69
METAR KP69 212352Z AUTO 00000KT 09/09 A3006 RMK AO1 SLP180 P0008
60026 T00940089 10122 20094 53017





    US Dept of Commerce
    National Oceanic and Atmospheric Administration
    National Weather Service
    1325 East West Highway
    Silver Spring, MD 20910
    Page Author: NWS Internet Services Team
Disclaimer
Information Quality
Credits
Glossary
Privacy Policy
Freedom of Information Act (FOIA)
About Us
Career Opportunities